sensor_id;sensor_type;location;lat;lon;timestamp;P1;durP1;ratioP1;P2;durP2;ratioP2
14377;SDS011;7272;53.668;9.578;2022-11-15T00:03:03;18.30;;;16.50;;
14377;SDS011;7272;53.668;9.578;2022-11-15T00:06:24;20.53;;;18.33;;
14377;SDS011;7272;53.668;9.578;2022-11-15T00:09:45;18.73;;;16.83;;
14377;SDS011;7272;53.668;9.578;2022-11-15T00:13:05;19.87;;;17.60;;
14377;SDS011;7272;53.668;9.578;2022-11-15T00:16:26;20.93;;;17.70;;
14377;SDS011;7272;53.668;9.578;2022-11-15T00:19:47;19.10;;;17.13;;
14377;SDS011;7272;53.668;9.578;2022-11-15T00:23:09;20.00;;;18.00;;
14377;SDS011;7272;53.668;9.578;2022-11-15T00:26:30;20.13;;;17.97;;
14377;SDS011;7272;53.668;9.578;2022-11-15T00:29:51;21.47;;;18.47;;
14377;SDS011;7272;53.668;9.578;2022-11-15T00:33:11;19.10;;;17.10;;
14377;SDS011;7272;53.668;9.578;2022-11-15T00:36:32;19.93;;;17.83;;
14377;SDS011;7272;53.668;9.578;2022-11-15T00:39:54;21.60;;;19.37;;
14377;SDS011;7272;53.668;9.578;2022-11-15T00:43:15;18.33;;;16.43;;
14377;SDS011;7272;53.668;9.578;2022-11-15T00:46:36;18.70;;;16.80;;
14377;SDS011;7272;53.668;9.578;2022-11-15T00:49:56;21.30;;;17.73;;
14377;SDS011;7272;53.668;9.578;2022-11-15T00:53:17;21.23;;;18.17;;
14377;SDS011;7272;53.668;9.578;2022-11-15T00:56:39;21.20;;;18.73;;
14377;SDS011;7272;53.668;9.578;2022-11-15T01:00:00;19.47;;;17.43;;
14377;SDS011;7272;53.668;9.578;2022-11-15T01:03:21;19.33;;;17.33;;
14377;SDS011;7272;53.668;9.578;2022-11-15T01:06:41;20.53;;;18.43;;
14377;SDS011;7272;53.668;9.578;2022-11-15T01:10:02;19.23;;;17.27;;
14377;SDS011;7272;53.668;9.578;2022-11-15T01:13:24;17.83;;;16.00;;
14377;SDS011;7272;53.668;9.578;2022-11-15T01:16:45;20.40;;;18.17;;
14377;SDS011;7272;53.668;9.578;2022-11-15T01:20:05;18.80;;;16.23;;
14377;SDS011;7272;53.668;9.578;2022-11-15T01:23:27;16.67;;;14.97;;
14377;SDS011;7272;53.668;9.578;2022-11-15T01:26:47;16.57;;;14.63;;
14377;SDS011;7272;53.668;9.578;2022-11-15T01:30:09;16.73;;;15.00;;
14377;SDS011;7272;53.668;9.578;2022-11-15T01:33:33;16.17;;;14.50;;
14377;SDS011;7272;53.668;9.578;2022-11-15T01:36:54;22.73;;;20.73;;
14377;SDS011;7272;53.668;9.578;2022-11-15T01:40:15;17.40;;;15.60;;
14377;SDS011;7272;53.668;9.578;2022-11-15T01:43:36;22.20;;;20.30;;
14377;SDS011;7272;53.668;9.578;2022-11-15T01:46:58;16.63;;;14.83;;
14377;SDS011;7272;53.668;9.578;2022-11-15T01:50:22;16.23;;;14.53;;
14377;SDS011;7272;53.668;9.578;2022-11-15T01:53:47;14.23;;;12.83;;
14377;SDS011;7272;53.668;9.578;2022-11-15T01:57:11;16.27;;;13.93;;
14377;SDS011;7272;53.668;9.578;2022-11-15T02:00:33;15.33;;;13.73;;
14377;SDS011;7272;53.668;9.578;2022-11-15T02:03:56;15.03;;;13.50;;
14377;SDS011;7272;53.668;9.578;2022-11-15T02:07:20;14.70;;;13.23;;
14377;SDS011;7272;53.668;9.578;2022-11-15T02:10:41;14.13;;;12.63;;
14377;SDS011;7272;53.668;9.578;2022-11-15T02:14:02;14.97;;;13.47;;
14377;SDS011;7272;53.668;9.578;2022-11-15T02:17:33;14.40;;;12.90;;
14377;SDS011;7272;53.668;9.578;2022-11-15T02:21:16;14.70;;;13.20;;
14377;SDS011;7272;53.668;9.578;2022-11-15T02:24:48;14.30;;;12.80;;
14377;SDS011;7272;53.668;9.578;2022-11-15T02:28:30;12.43;;;11.13;;
14377;SDS011;7272;53.668;9.578;2022-11-15T02:32:06;14.30;;;12.87;;
14377;SDS011;7272;53.668;9.578;2022-11-15T02:35:34;13.10;;;11.70;;
14377;SDS011;7272;53.668;9.578;2022-11-15T02:39:03;13.77;;;12.37;;
14377;SDS011;7272;53.668;9.578;2022-11-15T02:42:28;13.30;;;12.00;;
14377;SDS011;7272;53.668;9.578;2022-11-15T02:46:12;12.13;;;10.87;;
14377;SDS011;7272;53.668;9.578;2022-11-15T02:49:37;14.17;;;12.73;;
14377;SDS011;7272;53.668;9.578;2022-11-15T02:52:59;12.90;;;11.67;;
14377;SDS011;7272;53.668;9.578;2022-11-15T02:56:27;13.47;;;12.07;;
14377;SDS011;7272;53.668;9.578;2022-11-15T02:59:55;14.23;;;11.50;;
14377;SDS011;7272;53.668;9.578;2022-11-15T03:03:27;13.53;;;11.63;;
14377;SDS011;7272;53.668;9.578;2022-11-15T03:07:00;13.73;;;12.30;;
14377;SDS011;7272;53.668;9.578;2022-11-15T03:10:26;13.53;;;12.13;;
14377;SDS011;7272;53.668;9.578;2022-11-15T03:13:56;12.87;;;11.63;;
14377;SDS011;7272;53.668;9.578;2022-11-15T03:17:19;13.27;;;11.93;;
14377;SDS011;7272;53.668;9.578;2022-11-15T03:20:45;14.40;;;12.30;;
14377;SDS011;7272;53.668;9.578;2022-11-15T03:24:08;14.10;;;12.70;;
14377;SDS011;7272;53.668;9.578;2022-11-15T03:27:30;13.40;;;12.00;;
14377;SDS011;7272;53.668;9.578;2022-11-15T03:30:54;11.43;;;10.33;;
14377;SDS011;7272;53.668;9.578;2022-11-15T03:34:19;12.40;;;11.10;;
14377;SDS011;7272;53.668;9.578;2022-11-15T03:37:45;15.63;;;10.97;;
14377;SDS011;7272;53.668;9.578;2022-11-15T03:41:13;14.53;;;12.13;;
14377;SDS011;7272;53.668;9.578;2022-11-15T03:44:43;12.83;;;11.53;;
14377;SDS011;7272;53.668;9.578;2022-11-15T03:48:10;12.43;;;11.13;;
14377;SDS011;7272;53.668;9.578;2022-11-15T03:51:35;12.63;;;11.30;;
14377;SDS011;7272;53.668;9.578;2022-11-15T03:54:56;10.93;;;9.83;;
14377;SDS011;7272;53.668;9.578;2022-11-15T03:58:20;12.80;;;11.50;;
14377;SDS011;7272;53.668;9.578;2022-11-15T04:01:40;14.00;;;11.67;;
14377;SDS011;7272;53.668;9.578;2022-11-15T04:05:01;13.53;;;12.13;;
14377;SDS011;7272;53.668;9.578;2022-11-15T04:08:21;14.73;;;13.33;;
14377;SDS011;7272;53.668;9.578;2022-11-15T04:11:41;14.77;;;13.13;;
14377;SDS011;7272;53.668;9.578;2022-11-15T04:15:04;13.37;;;12.03;;
14377;SDS011;7272;53.668;9.578;2022-11-15T04:18:29;13.80;;;11.30;;
14377;SDS011;7272;53.668;9.578;2022-11-15T04:21:49;14.33;;;12.87;;
14377;SDS011;7272;53.668;9.578;2022-11-15T04:25:28;13.83;;;12.47;;
14377;SDS011;7272;53.668;9.578;2022-11-15T04:28:49;15.23;;;12.90;;
14377;SDS011;7272;53.668;9.578;2022-11-15T04:32:29;14.73;;;13.23;;
14377;SDS011;7272;53.668;9.578;2022-11-15T04:35:49;16.40;;;14.70;;
14377;SDS011;7272;53.668;9.578;2022-11-15T04:39:24;13.30;;;12.00;;
14377;SDS011;7272;53.668;9.578;2022-11-15T04:42:44;12.37;;;11.07;;
14377;SDS011;7272;53.668;9.578;2022-11-15T04:46:04;13.43;;;11.77;;
14377;SDS011;7272;53.668;9.578;2022-11-15T04:49:26;12.93;;;11.50;;
14377;SDS011;7272;53.668;9.578;2022-11-15T04:52:50;11.83;;;10.63;;
14377;SDS011;7272;53.668;9.578;2022-11-15T04:56:11;13.53;;;12.10;;
14377;SDS011;7272;53.668;9.578;2022-11-15T04:59:31;14.53;;;13.10;;
14377;SDS011;7272;53.668;9.578;2022-11-15T05:02:52;12.47;;;11.17;;
14377;SDS011;7272;53.668;9.578;2022-11-15T05:06:47;13.57;;;12.17;;
14377;SDS011;7272;53.668;9.578;2022-11-15T05:10:08;14.23;;;12.73;;
14377;SDS011;7272;53.668;9.578;2022-11-15T05:13:29;12.37;;;11.07;;
14377;SDS011;7272;53.668;9.578;2022-11-15T05:16:49;13.10;;;11.90;;
14377;SDS011;7272;53.668;9.578;2022-11-15T05:20:10;13.47;;;12.17;;
14377;SDS011;7272;53.668;9.578;2022-11-15T05:23:32;11.87;;;10.77;;
14377;SDS011;7272;53.668;9.578;2022-11-15T05:26:53;13.60;;;11.27;;
14377;SDS011;7272;53.668;9.578;2022-11-15T05:30:13;11.90;;;10.67;;
14377;SDS011;7272;53.668;9.578;2022-11-15T05:33:35;12.73;;;11.37;;
14377;SDS011;7272;53.668;9.578;2022-11-15T05:36:57;12.07;;;10.83;;
14377;SDS011;7272;53.668;9.578;2022-11-15T05:40:20;10.20;;;9.30;;
14377;SDS011;7272;53.668;9.578;2022-11-15T05:43:41;11.17;;;10.07;;
14377;SDS011;7272;53.668;9.578;2022-11-15T05:47:02;13.20;;;12.00;;
14377;SDS011;7272;53.668;9.578;2022-11-15T05:50:24;12.43;;;11.23;;
14377;SDS011;7272;53.668;9.578;2022-11-15T05:53:45;13.87;;;12.30;;
14377;SDS011;7272;53.668;9.578;2022-11-15T05:57:08;12.53;;;11.23;;
14377;SDS011;7272;53.668;9.578;2022-11-15T06:00:29;14.23;;;12.83;;
14377;SDS011;7272;53.668;9.578;2022-11-15T06:03:49;13.77;;;12.27;;
14377;SDS011;7272;53.668;9.578;2022-11-15T06:07:10;13.43;;;12.13;;
14377;SDS011;7272;53.668;9.578;2022-11-15T06:10:30;15.17;;;13.67;;
14377;SDS011;7272;53.668;9.578;2022-11-15T06:13:53;14.77;;;13.33;;
14377;SDS011;7272;53.668;9.578;2022-11-15T06:17:13;14.57;;;13.07;;
14377;SDS011;7272;53.668;9.578;2022-11-15T06:20:33;14.80;;;13.30;;
14377;SDS011;7272;53.668;9.578;2022-11-15T06:23:54;15.23;;;13.67;;
14377;SDS011;7272;53.668;9.578;2022-11-15T06:27:15;14.63;;;13.17;;
14377;SDS011;7272;53.668;9.578;2022-11-15T06:30:36;21.00;;;19.08;;
14377;SDS011;7272;53.668;9.578;2022-11-15T06:33:57;17.45;;;15.80;;
14377;SDS011;7272;53.668;9.578;2022-11-15T06:37:17;15.30;;;13.80;;
14377;SDS011;7272;53.668;9.578;2022-11-15T06:40:38;13.13;;;11.93;;
14377;SDS011;7272;53.668;9.578;2022-11-15T06:43:59;16.03;;;14.10;;
14377;SDS011;7272;53.668;9.578;2022-11-15T06:47:20;13.23;;;11.93;;
14377;SDS011;7272;53.668;9.578;2022-11-15T06:50:41;13.53;;;12.13;;
14377;SDS011;7272;53.668;9.578;2022-11-15T06:54:02;15.57;;;13.87;;
14377;SDS011;7272;53.668;9.578;2022-11-15T06:57:22;15.67;;;14.07;;
14377;SDS011;7272;53.668;9.578;2022-11-15T07:00:42;14.43;;;12.93;;
14377;SDS011;7272;53.668;9.578;2022-11-15T07:04:04;14.97;;;13.43;;
14377;SDS011;7272;53.668;9.578;2022-11-15T07:07:25;16.83;;;15.03;;
14377;SDS011;7272;53.668;9.578;2022-11-15T07:10:45;15.00;;;13.50;;
14377;SDS011;7272;53.668;9.578;2022-11-15T07:14:06;13.70;;;12.07;;
14377;SDS011;7272;53.668;9.578;2022-11-15T07:17:27;14.37;;;12.97;;
14377;SDS011;7272;53.668;9.578;2022-11-15T07:20:48;16.67;;;14.97;;
14377;SDS011;7272;53.668;9.578;2022-11-15T07:24:09;16.07;;;14.40;;
14377;SDS011;7272;53.668;9.578;2022-11-15T07:27:29;14.17;;;12.87;;
14377;SDS011;7272;53.668;9.578;2022-11-15T07:30:49;15.60;;;13.13;;
14377;SDS011;7272;53.668;9.578;2022-11-15T07:34:10;12.93;;;11.73;;
14377;SDS011;7272;53.668;9.578;2022-11-15T07:37:32;13.93;;;12.10;;
14377;SDS011;7272;53.668;9.578;2022-11-15T07:40:55;11.20;;;10.07;;
14377;SDS011;7272;53.668;9.578;2022-11-15T07:44:17;11.43;;;10.37;;
14377;SDS011;7272;53.668;9.578;2022-11-15T07:47:37;12.47;;;11.17;;
14377;SDS011;7272;53.668;9.578;2022-11-15T07:50:57;11.57;;;10.47;;
14377;SDS011;7272;53.668;9.578;2022-11-15T07:54:19;10.80;;;9.80;;
14377;SDS011;7272;53.668;9.578;2022-11-15T07:57:40;11.53;;;10.43;;
14377;SDS011;7272;53.668;9.578;2022-11-15T08:01:02;11.00;;;9.90;;
14377;SDS011;7272;53.668;9.578;2022-11-15T08:04:23;12.27;;;11.07;;
14377;SDS011;7272;53.668;9.578;2022-11-15T08:07:43;12.70;;;11.37;;
14377;SDS011;7272;53.668;9.578;2022-11-15T08:11:05;11.00;;;9.90;;
14377;SDS011;7272;53.668;9.578;2022-11-15T08:14:25;10.47;;;9.37;;
14377;SDS011;7272;53.668;9.578;2022-11-15T08:17:45;11.97;;;10.87;;
14377;SDS011;7272;53.668;9.578;2022-11-15T08:21:06;11.63;;;10.53;;
14377;SDS011;7272;53.668;9.578;2022-11-15T08:24:29;13.90;;;12.50;;
14377;SDS011;7272;53.668;9.578;2022-11-15T08:27:52;12.63;;;11.27;;
14377;SDS011;7272;53.668;9.578;2022-11-15T08:31:14;12.33;;;10.57;;
14377;SDS011;7272;53.668;9.578;2022-11-15T08:34:36;15.90;;;14.50;;
14377;SDS011;7272;53.668;9.578;2022-11-15T08:37:56;11.60;;;10.43;;
14377;SDS011;7272;53.668;9.578;2022-11-15T08:41:19;16.20;;;14.77;;
14377;SDS011;7272;53.668;9.578;2022-11-15T08:44:46;13.20;;;12.00;;
14377;SDS011;7272;53.668;9.578;2022-11-15T08:48:06;12.07;;;10.97;;
14377;SDS011;7272;53.668;9.578;2022-11-15T08:51:27;11.87;;;10.53;;
14377;SDS011;7272;53.668;9.578;2022-11-15T08:54:47;12.57;;;11.37;;
14377;SDS011;7272;53.668;9.578;2022-11-15T08:58:08;11.83;;;10.73;;
14377;SDS011;7272;53.668;9.578;2022-11-15T09:01:30;10.83;;;9.83;;
14377;SDS011;7272;53.668;9.578;2022-11-15T09:04:51;11.40;;;10.30;;
14377;SDS011;7272;53.668;9.578;2022-11-15T09:08:11;12.83;;;11.63;;
14377;SDS011;7272;53.668;9.578;2022-11-15T09:11:33;12.43;;;11.13;;
14377;SDS011;7272;53.668;9.578;2022-11-15T09:14:53;11.63;;;10.50;;
14377;SDS011;7272;53.668;9.578;2022-11-15T09:18:15;11.27;;;10.13;;
14377;SDS011;7272;53.668;9.578;2022-11-15T09:21:36;12.30;;;11.10;;
14377;SDS011;7272;53.668;9.578;2022-11-15T09:24:56;10.93;;;10.00;;
14377;SDS011;7272;53.668;9.578;2022-11-15T09:28:16;10.80;;;9.80;;
14377;SDS011;7272;53.668;9.578;2022-11-15T09:31:37;11.50;;;10.40;;
14377;SDS011;7272;53.668;9.578;2022-11-15T09:34:59;10.80;;;9.70;;
14377;SDS011;7272;53.668;9.578;2022-11-15T09:38:19;12.03;;;10.87;;
14377;SDS011;7272;53.668;9.578;2022-11-15T09:41:56;11.03;;;10.03;;
14377;SDS011;7272;53.668;9.578;2022-11-15T09:45:28;11.20;;;10.17;;
14377;SDS011;7272;53.668;9.578;2022-11-15T09:49:03;10.80;;;9.90;;
14377;SDS011;7272;53.668;9.578;2022-11-15T09:52:17;11.00;;;10.00;;
14377;SDS011;7272;53.668;9.578;2022-11-15T09:55:20;10.90;;;9.90;;
14377;SDS011;7272;53.668;9.578;2022-11-15T09:58:35;10.33;;;9.33;;
14377;SDS011;7272;53.668;9.578;2022-11-15T10:01:44;10.47;;;9.47;;
14377;SDS011;7272;53.668;9.578;2022-11-15T10:04:55;10.33;;;9.53;;
14377;SDS011;7272;53.668;9.578;2022-11-15T10:08:03;13.37;;;12.27;;
14377;SDS011;7272;53.668;9.578;2022-11-15T10:11:14;11.40;;;10.40;;
14377;SDS011;7272;53.668;9.578;2022-11-15T10:14:20;11.20;;;10.10;;
14377;SDS011;7272;53.668;9.578;2022-11-15T10:17:31;11.17;;;10.27;;
14377;SDS011;7272;53.668;9.578;2022-11-15T10:20:47;10.53;;;9.53;;
14377;SDS011;7272;53.668;9.578;2022-11-15T10:23:52;11.17;;;10.07;;
14377;SDS011;7272;53.668;9.578;2022-11-15T10:26:55;11.67;;;10.47;;
14377;SDS011;7272;53.668;9.578;2022-11-15T10:29:57;11.00;;;9.90;;
14377;SDS011;7272;53.668;9.578;2022-11-15T10:32:59;11.20;;;10.23;;
14377;SDS011;7272;53.668;9.578;2022-11-15T10:36:17;12.67;;;10.77;;
14377;SDS011;7272;53.668;9.578;2022-11-15T10:39:25;10.40;;;9.40;;
14377;SDS011;7272;53.668;9.578;2022-11-15T10:42:28;10.33;;;9.40;;
14377;SDS011;7272;53.668;9.578;2022-11-15T10:45:31;12.20;;;10.03;;
14377;SDS011;7272;53.668;9.578;2022-11-15T10:48:34;10.00;;;9.20;;
14377;SDS011;7272;53.668;9.578;2022-11-15T10:51:38;9.43;;;8.47;;
14377;SDS011;7272;53.668;9.578;2022-11-15T10:54:47;9.87;;;8.87;;
14377;SDS011;7272;53.668;9.578;2022-11-15T10:57:53;9.37;;;8.57;;
14377;SDS011;7272;53.668;9.578;2022-11-15T11:00:56;10.27;;;8.97;;
14377;SDS011;7272;53.668;9.578;2022-11-15T11:04:10;10.17;;;9.17;;
14377;SDS011;7272;53.668;9.578;2022-11-15T11:07:19;9.23;;;8.33;;
14377;SDS011;7272;53.668;9.578;2022-11-15T11:10:24;9.73;;;8.83;;
14377;SDS011;7272;53.668;9.578;2022-11-15T11:13:27;9.48;;;8.65;;
14377;SDS011;7272;53.668;9.578;2022-11-15T11:16:34;11.20;;;9.30;;
14377;SDS011;7272;53.668;9.578;2022-11-15T11:19:48;9.90;;;8.90;;
14377;SDS011;7272;53.668;9.578;2022-11-15T11:23:04;9.93;;;9.13;;
14377;SDS011;7272;53.668;9.578;2022-11-15T11:29:54;10.00;;;9.10;;
14377;SDS011;7272;53.668;9.578;2022-11-15T11:33:07;10.53;;;9.53;;
14377;SDS011;7272;53.668;9.578;2022-11-15T11:36:16;10.87;;;9.90;;
14377;SDS011;7272;53.668;9.578;2022-11-15T11:39:28;9.47;;;8.67;;
14377;SDS011;7272;53.668;9.578;2022-11-15T11:42:44;10.03;;;9.13;;
14377;SDS011;7272;53.668;9.578;2022-11-15T11:46:03;10.20;;;9.20;;
14377;SDS011;7272;53.668;9.578;2022-11-15T11:49:15;9.57;;;8.57;;
14377;SDS011;7272;53.668;9.578;2022-11-15T11:52:22;9.50;;;8.70;;
14377;SDS011;7272;53.668;9.578;2022-11-15T11:55:28;11.20;;;9.40;;
14377;SDS011;7272;53.668;9.578;2022-11-15T11:58:36;9.43;;;8.63;;
14377;SDS011;7272;53.668;9.578;2022-11-15T12:01:41;8.93;;;8.13;;
14377;SDS011;7272;53.668;9.578;2022-11-15T12:04:45;9.63;;;8.77;;
14377;SDS011;7272;53.668;9.578;2022-11-15T12:07:52;9.43;;;8.63;;
14377;SDS011;7272;53.668;9.578;2022-11-15T12:11:03;9.80;;;8.90;;
14377;SDS011;7272;53.668;9.578;2022-11-15T12:14:19;10.90;;;10.10;;
14377;SDS011;7272;53.668;9.578;2022-11-15T12:17:28;8.27;;;7.53;;
14377;SDS011;7272;53.668;9.578;2022-11-15T12:20:33;9.83;;;8.57;;
14377;SDS011;7272;53.668;9.578;2022-11-15T12:23:39;8.57;;;7.77;;
14377;SDS011;7272;53.668;9.578;2022-11-15T12:26:46;9.67;;;8.70;;
14377;SDS011;7272;53.668;9.578;2022-11-15T12:29:54;9.23;;;8.30;;
14377;SDS011;7272;53.668;9.578;2022-11-15T12:32:59;8.87;;;8.07;;
14377;SDS011;7272;53.668;9.578;2022-11-15T12:36:03;9.13;;;8.33;;
14377;SDS011;7272;53.668;9.578;2022-11-15T12:39:06;9.20;;;8.30;;
14377;SDS011;7272;53.668;9.578;2022-11-15T12:45:43;8.53;;;7.80;;
14377;SDS011;7272;53.668;9.578;2022-11-15T12:48:50;8.60;;;7.90;;
14377;SDS011;7272;53.668;9.578;2022-11-15T12:52:04;8.53;;;7.73;;
14377;SDS011;7272;53.668;9.578;2022-11-15T12:55:29;9.13;;;8.23;;
14377;SDS011;7272;53.668;9.578;2022-11-15T12:58:39;8.83;;;7.90;;
14377;SDS011;7272;53.668;9.578;2022-11-15T13:02:00;9.67;;;8.77;;
14377;SDS011;7272;53.668;9.578;2022-11-15T13:05:47;10.20;;;9.33;;
14377;SDS011;7272;53.668;9.578;2022-11-15T13:08:53;8.73;;;7.93;;
14377;SDS011;7272;53.668;9.578;2022-11-15T13:11:55;8.20;;;7.43;;
14377;SDS011;7272;53.668;9.578;2022-11-15T13:14:58;10.77;;;7.90;;
14377;SDS011;7272;53.668;9.578;2022-11-15T13:21:27;8.67;;;7.77;;
14377;SDS011;7272;53.668;9.578;2022-11-15T13:24:47;8.50;;;7.67;;
14377;SDS011;7272;53.668;9.578;2022-11-15T13:27:49;8.67;;;7.77;;
14377;SDS011;7272;53.668;9.578;2022-11-15T13:30:52;8.27;;;7.50;;
14377;SDS011;7272;53.668;9.578;2022-11-15T13:33:58;7.93;;;7.17;;
14377;SDS011;7272;53.668;9.578;2022-11-15T13:37:01;7.70;;;7.00;;
14377;SDS011;7272;53.668;9.578;2022-11-15T13:40:15;7.60;;;7.00;;
14377;SDS011;7272;53.668;9.578;2022-11-15T13:43:32;7.50;;;6.80;;
14377;SDS011;7272;53.668;9.578;2022-11-15T13:46:36;8.43;;;7.60;;
14377;SDS011;7272;53.668;9.578;2022-11-15T13:49:39;7.20;;;6.67;;
14377;SDS011;7272;53.668;9.578;2022-11-15T13:52:42;9.33;;;8.63;;
14377;SDS011;7272;53.668;9.578;2022-11-15T13:55:48;8.43;;;7.60;;
14377;SDS011;7272;53.668;9.578;2022-11-15T13:58:51;7.73;;;7.00;;
14377;SDS011;7272;53.668;9.578;2022-11-15T14:01:55;7.63;;;6.93;;
14377;SDS011;7272;53.668;9.578;2022-11-15T14:05:01;7.37;;;6.77;;
14377;SDS011;7272;53.668;9.578;2022-11-15T14:08:12;8.23;;;7.17;;
14377;SDS011;7272;53.668;9.578;2022-11-15T14:11:24;7.70;;;7.00;;
14377;SDS011;7272;53.668;9.578;2022-11-15T14:14:26;7.40;;;6.70;;
14377;SDS011;7272;53.668;9.578;2022-11-15T14:17:33;8.00;;;7.20;;
14377;SDS011;7272;53.668;9.578;2022-11-15T14:20:39;8.00;;;7.30;;
14377;SDS011;7272;53.668;9.578;2022-11-15T14:23:41;7.87;;;6.97;;
14377;SDS011;7272;53.668;9.578;2022-11-15T14:26:44;8.30;;;7.50;;
14377;SDS011;7272;53.668;9.578;2022-11-15T14:29:46;7.93;;;7.33;;
14377;SDS011;7272;53.668;9.578;2022-11-15T14:32:49;6.87;;;6.27;;
14377;SDS011;7272;53.668;9.578;2022-11-15T14:35:53;10.00;;;9.18;;
14377;SDS011;7272;53.668;9.578;2022-11-15T14:38:56;9.35;;;8.55;;
14377;SDS011;7272;53.668;9.578;2022-11-15T14:41:58;8.13;;;7.43;;
14377;SDS011;7272;53.668;9.578;2022-11-15T14:44:59;8.33;;;7.57;;
14377;SDS011;7272;53.668;9.578;2022-11-15T14:48:01;8.53;;;7.67;;
14377;SDS011;7272;53.668;9.578;2022-11-15T14:51:09;8.37;;;7.50;;
14377;SDS011;7272;53.668;9.578;2022-11-15T14:54:13;9.73;;;7.17;;
14377;SDS011;7272;53.668;9.578;2022-11-15T14:57:15;7.73;;;6.80;;
14377;SDS011;7272;53.668;9.578;2022-11-15T15:00:17;8.33;;;7.53;;
14377;SDS011;7272;53.668;9.578;2022-11-15T15:03:20;7.10;;;6.40;;
14377;SDS011;7272;53.668;9.578;2022-11-15T15:06:23;7.10;;;6.40;;
14377;SDS011;7272;53.668;9.578;2022-11-15T15:09:25;7.57;;;6.77;;
14377;SDS011;7272;53.668;9.578;2022-11-15T15:12:27;7.47;;;6.77;;
14377;SDS011;7272;53.668;9.578;2022-11-15T15:15:31;7.63;;;7.03;;
14377;SDS011;7272;53.668;9.578;2022-11-15T15:18:34;8.13;;;7.43;;
14377;SDS011;7272;53.668;9.578;2022-11-15T15:21:37;10.00;;;9.10;;
14377;SDS011;7272;53.668;9.578;2022-11-15T15:24:39;7.73;;;7.07;;
14377;SDS011;7272;53.668;9.578;2022-11-15T15:27:41;8.20;;;7.40;;
14377;SDS011;7272;53.668;9.578;2022-11-15T15:30:43;8.90;;;8.10;;
14377;SDS011;7272;53.668;9.578;2022-11-15T15:33:45;7.93;;;7.23;;
14377;SDS011;7272;53.668;9.578;2022-11-15T15:36:48;8.10;;;7.40;;
14377;SDS011;7272;53.668;9.578;2022-11-15T15:39:50;7.87;;;7.17;;
14377;SDS011;7272;53.668;9.578;2022-11-15T15:42:53;9.07;;;8.23;;
14377;SDS011;7272;53.668;9.578;2022-11-15T15:45:55;7.73;;;7.03;;
14377;SDS011;7272;53.668;9.578;2022-11-15T15:48:57;7.93;;;7.17;;
14377;SDS011;7272;53.668;9.578;2022-11-15T15:52:00;7.67;;;6.87;;
14377;SDS011;7272;53.668;9.578;2022-11-15T15:55:02;8.97;;;8.07;;
14377;SDS011;7272;53.668;9.578;2022-11-15T15:58:04;7.87;;;7.07;;
14377;SDS011;7272;53.668;9.578;2022-11-15T16:01:06;10.35;;;9.35;;
14377;SDS011;7272;53.668;9.578;2022-11-15T16:04:08;8.73;;;7.93;;
14377;SDS011;7272;53.668;9.578;2022-11-15T16:07:15;8.13;;;7.33;;
14377;SDS011;7272;53.668;9.578;2022-11-15T16:10:22;9.27;;;8.37;;
14377;SDS011;7272;53.668;9.578;2022-11-15T16:13:26;9.03;;;8.13;;
14377;SDS011;7272;53.668;9.578;2022-11-15T16:16:27;9.20;;;8.20;;
14377;SDS011;7272;53.668;9.578;2022-11-15T16:19:29;8.57;;;7.77;;
14377;SDS011;7272;53.668;9.578;2022-11-15T16:22:32;9.50;;;8.57;;
14377;SDS011;7272;53.668;9.578;2022-11-15T16:25:37;8.53;;;7.80;;
14377;SDS011;7272;53.668;9.578;2022-11-15T16:28:40;10.90;;;8.43;;
14377;SDS011;7272;53.668;9.578;2022-11-15T16:31:42;9.33;;;8.20;;
14377;SDS011;7272;53.668;9.578;2022-11-15T16:34:44;9.63;;;8.63;;
14377;SDS011;7272;53.668;9.578;2022-11-15T16:37:47;9.13;;;7.87;;
14377;SDS011;7272;53.668;9.578;2022-11-15T16:40:50;9.87;;;8.80;;
14377;SDS011;7272;53.668;9.578;2022-11-15T16:43:52;9.67;;;8.27;;
14377;SDS011;7272;53.668;9.578;2022-11-15T16:46:55;9.33;;;8.43;;
14377;SDS011;7272;53.668;9.578;2022-11-15T16:49:57;10.70;;;9.80;;
14377;SDS011;7272;53.668;9.578;2022-11-15T16:53:00;9.27;;;8.30;;
14377;SDS011;7272;53.668;9.578;2022-11-15T16:56:02;8.83;;;8.03;;
14377;SDS011;7272;53.668;9.578;2022-11-15T16:59:04;10.50;;;9.47;;
14377;SDS011;7272;53.668;9.578;2022-11-15T17:02:09;9.40;;;8.50;;
14377;SDS011;7272;53.668;9.578;2022-11-15T17:05:12;11.27;;;9.07;;
14377;SDS011;7272;53.668;9.578;2022-11-15T17:08:17;9.23;;;8.33;;
14377;SDS011;7272;53.668;9.578;2022-11-15T17:11:20;9.57;;;8.67;;
14377;SDS011;7272;53.668;9.578;2022-11-15T17:14:22;10.27;;;9.03;;
14377;SDS011;7272;53.668;9.578;2022-11-15T17:17:24;9.87;;;8.87;;
14377;SDS011;7272;53.668;9.578;2022-11-15T17:20:26;9.67;;;8.67;;
14377;SDS011;7272;53.668;9.578;2022-11-15T17:23:29;9.43;;;8.53;;
14377;SDS011;7272;53.668;9.578;2022-11-15T17:26:32;8.63;;;7.83;;
14377;SDS011;7272;53.668;9.578;2022-11-15T17:29:34;10.95;;;10.05;;
14377;SDS011;7272;53.668;9.578;2022-11-15T17:32:36;8.50;;;7.80;;
14377;SDS011;7272;53.668;9.578;2022-11-15T17:35:39;8.93;;;8.10;;
14377;SDS011;7272;53.668;9.578;2022-11-15T17:38:42;8.13;;;7.33;;
14377;SDS011;7272;53.668;9.578;2022-11-15T17:41:49;8.87;;;8.07;;
14377;SDS011;7272;53.668;9.578;2022-11-15T17:44:52;8.70;;;7.90;;
14377;SDS011;7272;53.668;9.578;2022-11-15T17:47:54;8.83;;;8.00;;
14377;SDS011;7272;53.668;9.578;2022-11-15T17:50:56;8.77;;;7.97;;
14377;SDS011;7272;53.668;9.578;2022-11-15T17:54:00;8.37;;;7.50;;
14377;SDS011;7272;53.668;9.578;2022-11-15T17:57:02;9.63;;;8.50;;
14377;SDS011;7272;53.668;9.578;2022-11-15T18:00:05;9.27;;;7.87;;
14377;SDS011;7272;53.668;9.578;2022-11-15T18:03:08;8.63;;;7.80;;
14377;SDS011;7272;53.668;9.578;2022-11-15T18:06:10;8.33;;;7.53;;
14377;SDS011;7272;53.668;9.578;2022-11-15T18:09:13;9.30;;;8.40;;
14377;SDS011;7272;53.668;9.578;2022-11-15T18:12:15;9.30;;;8.40;;
14377;SDS011;7272;53.668;9.578;2022-11-15T18:15:18;9.07;;;8.23;;
14377;SDS011;7272;53.668;9.578;2022-11-15T18:18:20;8.40;;;7.70;;
14377;SDS011;7272;53.668;9.578;2022-11-15T18:21:24;11.30;;;10.38;;
14377;SDS011;7272;53.668;9.578;2022-11-15T18:24:29;9.43;;;8.63;;
14377;SDS011;7272;53.668;9.578;2022-11-15T18:27:32;8.93;;;8.10;;
14377;SDS011;7272;53.668;9.578;2022-11-15T18:30:36;8.67;;;7.87;;
14377;SDS011;7272;53.668;9.578;2022-11-15T18:33:40;9.63;;;8.73;;
14377;SDS011;7272;53.668;9.578;2022-11-15T18:36:43;9.60;;;8.70;;
14377;SDS011;7272;53.668;9.578;2022-11-15T18:39:47;9.60;;;8.53;;
14377;SDS011;7272;53.668;9.578;2022-11-15T18:42:48;8.93;;;8.10;;
14377;SDS011;7272;53.668;9.578;2022-11-15T18:45:54;9.20;;;8.40;;
14377;SDS011;7272;53.668;9.578;2022-11-15T18:48:56;8.93;;;8.13;;
14377;SDS011;7272;53.668;9.578;2022-11-15T18:51:59;10.00;;;9.10;;
14377;SDS011;7272;53.668;9.578;2022-11-15T18:55:02;9.87;;;8.97;;
14377;SDS011;7272;53.668;9.578;2022-11-15T18:58:04;9.53;;;8.70;;
14377;SDS011;7272;53.668;9.578;2022-11-15T19:01:08;9.83;;;8.93;;
14377;SDS011;7272;53.668;9.578;2022-11-15T19:04:12;11.63;;;10.52;;
14377;SDS011;7272;53.668;9.578;2022-11-15T19:07:16;9.80;;;9.00;;
14377;SDS011;7272;53.668;9.578;2022-11-15T19:10:19;9.40;;;8.53;;
14377;SDS011;7272;53.668;9.578;2022-11-15T19:13:21;9.47;;;8.60;;
14377;SDS011;7272;53.668;9.578;2022-11-15T19:16:23;11.40;;;9.40;;
14377;SDS011;7272;53.668;9.578;2022-11-15T19:19:26;9.33;;;8.47;;
14377;SDS011;7272;53.668;9.578;2022-11-15T19:22:28;10.10;;;9.20;;
14377;SDS011;7272;53.668;9.578;2022-11-15T19:25:32;10.37;;;9.33;;
14377;SDS011;7272;53.668;9.578;2022-11-15T19:28:34;11.17;;;10.07;;
14377;SDS011;7272;53.668;9.578;2022-11-15T19:31:36;10.00;;;9.00;;
14377;SDS011;7272;53.668;9.578;2022-11-15T19:34:38;10.00;;;9.00;;
14377;SDS011;7272;53.668;9.578;2022-11-15T19:37:40;10.87;;;9.87;;